sensor_id;sensor_type;location;lat;lon;timestamp;P1;durP1;ratioP1;P2;durP2;ratioP2
34930;SDS011;21134;49.646;8.560;2024-03-06T00:02:22;1.10;;;0.63;;
34930;SDS011;21134;49.646;8.560;2024-03-06T00:04:50;0.90;;;0.87;;
34930;SDS011;21134;49.646;8.560;2024-03-06T00:07:16;2.73;;;1.50;;
34930;SDS011;21134;49.646;8.560;2024-03-06T00:09:43;1.43;;;1.03;;
34930;SDS011;21134;49.646;8.560;2024-03-06T00:12:09;2.53;;;1.30;;
34930;SDS011;21134;49.646;8.560;2024-03-06T00:14:36;1.00;;;1.00;;
34930;SDS011;21134;49.646;8.560;2024-03-06T00:17:03;1.37;;;1.27;;
34930;SDS011;21134;49.646;8.560;2024-03-06T00:19:31;1.47;;;1.07;;
34930;SDS011;21134;49.646;8.560;2024-03-06T00:21:59;1.77;;;1.33;;
34930;SDS011;21134;49.646;8.560;2024-03-06T00:24:26;0.87;;;0.87;;
34930;SDS011;21134;49.646;8.560;2024-03-06T00:26:52;1.47;;;1.10;;
34930;SDS011;21134;49.646;8.560;2024-03-06T00:29:19;2.07;;;0.93;;
34930;SDS011;21134;49.646;8.560;2024-03-06T00:31:46;0.77;;;0.77;;
34930;SDS011;21134;49.646;8.560;2024-03-06T00:34:13;1.67;;;1.27;;
34930;SDS011;21134;49.646;8.560;2024-03-06T00:36:40;2.03;;;1.47;;
34930;SDS011;21134;49.646;8.560;2024-03-06T00:39:08;1.90;;;1.20;;
34930;SDS011;21134;49.646;8.560;2024-03-06T00:41:35;4.87;;;1.40;;
34930;SDS011;21134;49.646;8.560;2024-03-06T00:44:02;2.10;;;1.03;;
34930;SDS011;21134;49.646;8.560;2024-03-06T00:46:29;1.23;;;0.77;;
34930;SDS011;21134;49.646;8.560;2024-03-06T00:48:55;1.30;;;1.17;;
34930;SDS011;21134;49.646;8.560;2024-03-06T00:51:22;1.70;;;1.00;;
34930;SDS011;21134;49.646;8.560;2024-03-06T00:53:49;1.60;;;0.97;;
34930;SDS011;21134;49.646;8.560;2024-03-06T00:56:17;3.30;;;2.07;;
34930;SDS011;21134;49.646;8.560;2024-03-06T00:58:43;2.47;;;1.37;;
34930;SDS011;21134;49.646;8.560;2024-03-06T01:01:10;4.00;;;1.87;;
34930;SDS011;21134;49.646;8.560;2024-03-06T01:03:37;2.53;;;1.60;;
34930;SDS011;21134;49.646;8.560;2024-03-06T01:06:04;2.10;;;0.77;;
34930;SDS011;21134;49.646;8.560;2024-03-06T01:08:30;1.90;;;1.70;;
34930;SDS011;21134;49.646;8.560;2024-03-06T01:10:57;1.40;;;1.20;;
34930;SDS011;21134;49.646;8.560;2024-03-06T01:13:27;3.60;;;1.43;;
34930;SDS011;21134;49.646;8.560;2024-03-06T01:15:54;2.80;;;1.83;;
34930;SDS011;21134;49.646;8.560;2024-03-06T01:18:20;1.97;;;1.73;;
34930;SDS011;21134;49.646;8.560;2024-03-06T01:20:47;3.40;;;1.80;;
34930;SDS011;21134;49.646;8.560;2024-03-06T01:23:14;3.30;;;0.93;;
34930;SDS011;21134;49.646;8.560;2024-03-06T01:25:41;2.20;;;0.93;;
34930;SDS011;21134;49.646;8.560;2024-03-06T01:28:08;0.73;;;0.73;;
34930;SDS011;21134;49.646;8.560;2024-03-06T01:30:36;1.27;;;0.93;;
34930;SDS011;21134;49.646;8.560;2024-03-06T01:33:02;1.20;;;0.40;;
34930;SDS011;21134;49.646;8.560;2024-03-06T01:35:30;1.23;;;1.13;;
34930;SDS011;21134;49.646;8.560;2024-03-06T01:37:56;1.90;;;0.60;;
34930;SDS011;21134;49.646;8.560;2024-03-06T01:40:23;2.60;;;1.37;;
34930;SDS011;21134;49.646;8.560;2024-03-06T01:42:49;0.40;;;0.40;;
34930;SDS011;21134;49.646;8.560;2024-03-06T01:45:16;0.97;;;0.57;;
34930;SDS011;21134;49.646;8.560;2024-03-06T01:47:44;0.90;;;0.60;;
34930;SDS011;21134;49.646;8.560;2024-03-06T01:50:11;1.73;;;1.10;;
34930;SDS011;21134;49.646;8.560;2024-03-06T01:52:38;2.50;;;2.23;;
34930;SDS011;21134;49.646;8.560;2024-03-06T01:55:07;1.30;;;1.13;;
34930;SDS011;21134;49.646;8.560;2024-03-06T01:57:35;1.43;;;1.33;;
34930;SDS011;21134;49.646;8.560;2024-03-06T02:00:05;1.20;;;1.10;;
34930;SDS011;21134;49.646;8.560;2024-03-06T02:02:33;2.47;;;1.13;;
34930;SDS011;21134;49.646;8.560;2024-03-06T02:05:02;0.57;;;0.57;;
34930;SDS011;21134;49.646;8.560;2024-03-06T02:07:28;1.53;;;1.43;;
34930;SDS011;21134;49.646;8.560;2024-03-06T02:09:58;1.87;;;1.07;;
34930;SDS011;21134;49.646;8.560;2024-03-06T02:12:25;2.20;;;1.13;;
34930;SDS011;21134;49.646;8.560;2024-03-06T02:14:52;3.30;;;0.93;;
34930;SDS011;21134;49.646;8.560;2024-03-06T02:17:19;2.57;;;1.57;;
34930;SDS011;21134;49.646;8.560;2024-03-06T02:19:47;7.63;;;2.20;;
34930;SDS011;21134;49.646;8.560;2024-03-06T02:22:13;1.67;;;1.07;;
34930;SDS011;21134;49.646;8.560;2024-03-06T02:24:43;3.57;;;1.10;;
34930;SDS011;21134;49.646;8.560;2024-03-06T02:27:11;0.70;;;0.60;;
34930;SDS011;21134;49.646;8.560;2024-03-06T02:29:38;1.10;;;0.70;;
34930;SDS011;21134;49.646;8.560;2024-03-06T02:32:04;2.07;;;1.37;;
34930;SDS011;21134;49.646;8.560;2024-03-06T02:34:31;1.00;;;1.00;;
34930;SDS011;21134;49.646;8.560;2024-03-06T02:36:57;1.13;;;0.93;;
34930;SDS011;21134;49.646;8.560;2024-03-06T02:39:25;1.97;;;1.20;;
34930;SDS011;21134;49.646;8.560;2024-03-06T02:41:52;1.40;;;0.93;;
34930;SDS011;21134;49.646;8.560;2024-03-06T02:44:18;1.33;;;1.23;;
34930;SDS011;21134;49.646;8.560;2024-03-06T02:46:46;0.70;;;0.70;;
34930;SDS011;21134;49.646;8.560;2024-03-06T02:49:13;5.40;;;1.13;;
34930;SDS011;21134;49.646;8.560;2024-03-06T02:51:39;1.30;;;0.80;;
34930;SDS011;21134;49.646;8.560;2024-03-06T02:54:06;0.40;;;0.40;;
34930;SDS011;21134;49.646;8.560;2024-03-06T02:56:34;0.97;;;0.70;;
34930;SDS011;21134;49.646;8.560;2024-03-06T02:59:00;3.60;;;1.20;;
34930;SDS011;21134;49.646;8.560;2024-03-06T03:01:28;0.97;;;0.70;;
34930;SDS011;21134;49.646;8.560;2024-03-06T03:03:54;5.00;;;1.33;;
34930;SDS011;21134;49.646;8.560;2024-03-06T03:06:21;1.80;;;1.20;;
34930;SDS011;21134;49.646;8.560;2024-03-06T03:08:49;1.93;;;1.37;;
34930;SDS011;21134;49.646;8.560;2024-03-06T03:11:15;0.80;;;0.80;;
34930;SDS011;21134;49.646;8.560;2024-03-06T03:13:43;1.80;;;0.70;;
34930;SDS011;21134;49.646;8.560;2024-03-06T03:16:14;1.87;;;0.70;;
34930;SDS011;21134;49.646;8.560;2024-03-06T03:18:42;0.53;;;0.50;;
34930;SDS011;21134;49.646;8.560;2024-03-06T03:21:09;2.13;;;1.63;;
34930;SDS011;21134;49.646;8.560;2024-03-06T03:23:35;3.50;;;1.83;;
34930;SDS011;21134;49.646;8.560;2024-03-06T03:26:02;0.63;;;0.63;;
34930;SDS011;21134;49.646;8.560;2024-03-06T03:28:29;0.97;;;0.87;;
34930;SDS011;21134;49.646;8.560;2024-03-06T03:30:57;1.73;;;1.13;;
34930;SDS011;21134;49.646;8.560;2024-03-06T03:33:24;1.73;;;1.07;;
34930;SDS011;21134;49.646;8.560;2024-03-06T03:35:50;2.23;;;1.17;;
34930;SDS011;21134;49.646;8.560;2024-03-06T03:38:17;0.53;;;0.53;;
34930;SDS011;21134;49.646;8.560;2024-03-06T03:40:43;0.73;;;0.50;;
34930;SDS011;21134;49.646;8.560;2024-03-06T03:43:10;0.87;;;0.87;;
34930;SDS011;21134;49.646;8.560;2024-03-06T03:45:36;2.03;;;1.57;;
34930;SDS011;21134;49.646;8.560;2024-03-06T03:48:05;0.87;;;0.87;;
34930;SDS011;21134;49.646;8.560;2024-03-06T03:50:32;2.03;;;1.03;;
34930;SDS011;21134;49.646;8.560;2024-03-06T03:52:58;0.83;;;0.83;;
34930;SDS011;21134;49.646;8.560;2024-03-06T03:55:26;1.07;;;0.87;;
34930;SDS011;21134;49.646;8.560;2024-03-06T03:57:52;5.30;;;1.83;;
34930;SDS011;21134;49.646;8.560;2024-03-06T04:00:19;0.90;;;0.90;;
34930;SDS011;21134;49.646;8.560;2024-03-06T04:02:48;0.97;;;0.77;;
34930;SDS011;21134;49.646;8.560;2024-03-06T04:05:15;6.33;;;2.73;;
34930;SDS011;21134;49.646;8.560;2024-03-06T04:07:42;2.07;;;0.90;;
34930;SDS011;21134;49.646;8.560;2024-03-06T04:10:09;2.93;;;1.13;;
34930;SDS011;21134;49.646;8.560;2024-03-06T04:12:36;2.37;;;1.27;;
34930;SDS011;21134;49.646;8.560;2024-03-06T04:15:04;0.73;;;0.40;;
34930;SDS011;21134;49.646;8.560;2024-03-06T04:17:31;0.77;;;0.70;;
34930;SDS011;21134;49.646;8.560;2024-03-06T04:19:57;1.30;;;1.00;;
34930;SDS011;21134;49.646;8.560;2024-03-06T04:22:26;2.07;;;1.33;;
34930;SDS011;21134;49.646;8.560;2024-03-06T04:24:54;1.33;;;1.23;;
34930;SDS011;21134;49.646;8.560;2024-03-06T04:27:20;1.43;;;0.90;;
34930;SDS011;21134;49.646;8.560;2024-03-06T04:29:47;2.77;;;1.37;;
34930;SDS011;21134;49.646;8.560;2024-03-06T04:32:13;1.03;;;0.70;;
34930;SDS011;21134;49.646;8.560;2024-03-06T04:34:40;3.77;;;0.87;;
34930;SDS011;21134;49.646;8.560;2024-03-06T04:37:06;1.23;;;1.13;;
34930;SDS011;21134;49.646;8.560;2024-03-06T04:39:34;1.30;;;1.20;;
34930;SDS011;21134;49.646;8.560;2024-03-06T04:42:01;1.40;;;1.13;;
34930;SDS011;21134;49.646;8.560;2024-03-06T04:44:27;2.10;;;1.13;;
34930;SDS011;21134;49.646;8.560;2024-03-06T04:46:54;1.33;;;1.23;;
34930;SDS011;21134;49.646;8.560;2024-03-06T04:49:21;3.03;;;0.60;;
34930;SDS011;21134;49.646;8.560;2024-03-06T04:51:47;2.57;;;0.73;;
34930;SDS011;21134;49.646;8.560;2024-03-06T04:54:14;1.70;;;0.27;;
34930;SDS011;21134;49.646;8.560;2024-03-06T04:56:42;1.27;;;1.13;;
34930;SDS011;21134;49.646;8.560;2024-03-06T04:59:08;1.23;;;0.93;;
34930;SDS011;21134;49.646;8.560;2024-03-06T05:01:35;1.70;;;1.33;;
34930;SDS011;21134;49.646;8.560;2024-03-06T05:04:01;0.70;;;0.70;;
34930;SDS011;21134;49.646;8.560;2024-03-06T05:06:28;3.70;;;1.57;;
34930;SDS011;21134;49.646;8.560;2024-03-06T05:08:55;0.50;;;0.50;;
34930;SDS011;21134;49.646;8.560;2024-03-06T05:11:21;0.93;;;0.47;;
34930;SDS011;21134;49.646;8.560;2024-03-06T05:13:49;0.87;;;0.73;;
34930;SDS011;21134;49.646;8.560;2024-03-06T05:16:16;4.17;;;1.10;;
34930;SDS011;21134;49.646;8.560;2024-03-06T05:18:42;3.20;;;0.83;;
34930;SDS011;21134;49.646;8.560;2024-03-06T05:21:09;0.93;;;0.63;;
34930;SDS011;21134;49.646;8.560;2024-03-06T05:23:36;2.60;;;0.70;;
34930;SDS011;21134;49.646;8.560;2024-03-06T05:26:03;19.37;;;1.80;;
34930;SDS011;21134;49.646;8.560;2024-03-06T05:28:30;1.03;;;0.90;;
34930;SDS011;21134;49.646;8.560;2024-03-06T05:30:57;0.57;;;0.27;;
34930;SDS011;21134;49.646;8.560;2024-03-06T05:33:25;9.40;;;1.37;;
34930;SDS011;21134;49.646;8.560;2024-03-06T05:35:53;0.67;;;0.67;;
34930;SDS011;21134;49.646;8.560;2024-03-06T05:38:20;8.93;;;1.47;;
34930;SDS011;21134;49.646;8.560;2024-03-06T05:40:47;0.40;;;0.37;;
34930;SDS011;21134;49.646;8.560;2024-03-06T05:43:13;0.97;;;0.97;;
34930;SDS011;21134;49.646;8.560;2024-03-06T05:45:40;0.93;;;0.83;;
34930;SDS011;21134;49.646;8.560;2024-03-06T05:48:08;4.80;;;2.07;;
34930;SDS011;21134;49.646;8.560;2024-03-06T05:50:34;1.23;;;1.13;;
34930;SDS011;21134;49.646;8.560;2024-03-06T05:53:01;0.50;;;0.50;;
34930;SDS011;21134;49.646;8.560;2024-03-06T05:55:27;3.70;;;0.77;;
34930;SDS011;21134;49.646;8.560;2024-03-06T05:57:54;1.03;;;1.03;;
34930;SDS011;21134;49.646;8.560;2024-03-06T06:00:21;1.80;;;0.87;;
34930;SDS011;21134;49.646;8.560;2024-03-06T06:02:47;0.83;;;0.83;;
34930;SDS011;21134;49.646;8.560;2024-03-06T06:05:15;0.93;;;0.77;;
34930;SDS011;21134;49.646;8.560;2024-03-06T06:07:44;5.00;;;1.90;;
34930;SDS011;21134;49.646;8.560;2024-03-06T06:10:11;2.37;;;1.97;;
34930;SDS011;21134;49.646;8.560;2024-03-06T06:12:38;4.33;;;1.47;;
34930;SDS011;21134;49.646;8.560;2024-03-06T06:15:05;0.70;;;0.70;;
34930;SDS011;21134;49.646;8.560;2024-03-06T06:17:32;1.07;;;0.87;;
34930;SDS011;21134;49.646;8.560;2024-03-06T06:19:59;0.93;;;0.93;;
34930;SDS011;21134;49.646;8.560;2024-03-06T06:22:30;0.60;;;0.60;;
34930;SDS011;21134;49.646;8.560;2024-03-06T06:24:56;1.50;;;0.83;;
34930;SDS011;21134;49.646;8.560;2024-03-06T06:27:23;2.93;;;1.20;;
34930;SDS011;21134;49.646;8.560;2024-03-06T06:29:50;1.13;;;1.00;;
34930;SDS011;21134;49.646;8.560;2024-03-06T06:32:18;5.10;;;1.17;;
34930;SDS011;21134;49.646;8.560;2024-03-06T06:34:44;1.60;;;0.63;;
34930;SDS011;21134;49.646;8.560;2024-03-06T06:37:12;2.90;;;1.73;;
34930;SDS011;21134;49.646;8.560;2024-03-06T06:39:41;0.93;;;0.93;;
34930;SDS011;21134;49.646;8.560;2024-03-06T06:42:07;1.43;;;0.80;;
34930;SDS011;21134;49.646;8.560;2024-03-06T06:44:36;1.13;;;1.03;;
34930;SDS011;21134;49.646;8.560;2024-03-06T06:47:03;0.47;;;0.47;;
34930;SDS011;21134;49.646;8.560;2024-03-06T06:49:30;1.10;;;1.00;;
34930;SDS011;21134;49.646;8.560;2024-03-06T06:51:56;2.23;;;1.90;;
34930;SDS011;21134;49.646;8.560;2024-03-06T06:54:23;5.00;;;0.83;;
34930;SDS011;21134;49.646;8.560;2024-03-06T06:56:50;3.33;;;2.03;;
34930;SDS011;21134;49.646;8.560;2024-03-06T06:59:17;2.20;;;1.17;;
34930;SDS011;21134;49.646;8.560;2024-03-06T07:01:45;2.20;;;1.17;;
34930;SDS011;21134;49.646;8.560;2024-03-06T07:04:11;5.27;;;1.77;;
34930;SDS011;21134;49.646;8.560;2024-03-06T07:06:41;2.47;;;1.67;;
34930;SDS011;21134;49.646;8.560;2024-03-06T07:09:08;1.63;;;1.53;;
34930;SDS011;21134;49.646;8.560;2024-03-06T07:11:34;1.80;;;1.13;;
34930;SDS011;21134;49.646;8.560;2024-03-06T07:14:02;3.33;;;1.20;;
34930;SDS011;21134;49.646;8.560;2024-03-06T07:16:29;3.00;;;2.10;;
34930;SDS011;21134;49.646;8.560;2024-03-06T07:18:55;2.50;;;1.40;;
34930;SDS011;21134;49.646;8.560;2024-03-06T07:21:22;5.10;;;2.50;;
34930;SDS011;21134;49.646;8.560;2024-03-06T07:23:48;5.97;;;2.07;;
34930;SDS011;21134;49.646;8.560;2024-03-06T07:26:15;1.60;;;1.50;;
34930;SDS011;21134;49.646;8.560;2024-03-06T07:28:41;5.17;;;2.50;;
34930;SDS011;21134;49.646;8.560;2024-03-06T07:31:09;3.03;;;2.07;;
34930;SDS011;21134;49.646;8.560;2024-03-06T07:33:36;4.00;;;2.27;;
34930;SDS011;21134;49.646;8.560;2024-03-06T07:36:03;3.43;;;2.27;;
34930;SDS011;21134;49.646;8.560;2024-03-06T07:38:30;2.80;;;2.50;;
34930;SDS011;21134;49.646;8.560;2024-03-06T07:40:56;5.20;;;3.33;;
34930;SDS011;21134;49.646;8.560;2024-03-06T07:43:23;9.13;;;2.83;;
34930;SDS011;21134;49.646;8.560;2024-03-06T07:45:49;8.57;;;3.57;;
34930;SDS011;21134;49.646;8.560;2024-03-06T07:48:18;5.47;;;3.40;;
34930;SDS011;21134;49.646;8.560;2024-03-06T07:50:45;3.53;;;1.63;;
34930;SDS011;21134;49.646;8.560;2024-03-06T07:53:11;3.33;;;2.07;;
34930;SDS011;21134;49.646;8.560;2024-03-06T07:55:38;2.53;;;2.23;;
34930;SDS011;21134;49.646;8.560;2024-03-06T07:58:05;4.27;;;2.70;;
34930;SDS011;21134;49.646;8.560;2024-03-06T08:00:33;3.20;;;2.67;;
34930;SDS011;21134;49.646;8.560;2024-03-06T08:02:59;7.53;;;2.50;;
34930;SDS011;21134;49.646;8.560;2024-03-06T08:05:28;18.33;;;3.90;;
34930;SDS011;21134;49.646;8.560;2024-03-06T08:07:55;5.07;;;1.80;;
34930;SDS011;21134;49.646;8.560;2024-03-06T08:10:21;6.17;;;2.33;;
34930;SDS011;21134;49.646;8.560;2024-03-06T08:12:47;6.07;;;1.90;;
34930;SDS011;21134;49.646;8.560;2024-03-06T08:15:14;2.30;;;1.77;;
34930;SDS011;21134;49.646;8.560;2024-03-06T08:17:42;2.63;;;1.00;;
34930;SDS011;21134;49.646;8.560;2024-03-06T08:20:09;2.80;;;1.73;;
34930;SDS011;21134;49.646;8.560;2024-03-06T08:22:38;1.33;;;1.20;;
34930;SDS011;21134;49.646;8.560;2024-03-06T08:25:06;1.33;;;1.20;;
34930;SDS011;21134;49.646;8.560;2024-03-06T08:27:34;1.07;;;0.73;;
34930;SDS011;21134;49.646;8.560;2024-03-06T08:30:00;8.20;;;2.57;;
34930;SDS011;21134;49.646;8.560;2024-03-06T08:32:29;1.80;;;0.90;;
34930;SDS011;21134;49.646;8.560;2024-03-06T08:34:56;2.33;;;1.77;;
34930;SDS011;21134;49.646;8.560;2024-03-06T08:37:23;3.07;;;2.13;;
34930;SDS011;21134;49.646;8.560;2024-03-06T08:39:50;3.07;;;1.50;;
34930;SDS011;21134;49.646;8.560;2024-03-06T08:42:17;2.63;;;1.40;;
34930;SDS011;21134;49.646;8.560;2024-03-06T08:44:44;3.33;;;1.13;;
34930;SDS011;21134;49.646;8.560;2024-03-06T08:47:11;1.83;;;1.10;;
34930;SDS011;21134;49.646;8.560;2024-03-06T08:49:38;1.07;;;0.97;;
34930;SDS011;21134;49.646;8.560;2024-03-06T08:52:04;1.77;;;1.47;;
34930;SDS011;21134;49.646;8.560;2024-03-06T08:54:31;4.27;;;1.63;;
34930;SDS011;21134;49.646;8.560;2024-03-06T08:56:58;1.83;;;1.17;;
34930;SDS011;21134;49.646;8.560;2024-03-06T08:59:25;1.50;;;1.40;;
34930;SDS011;21134;49.646;8.560;2024-03-06T09:01:51;6.17;;;1.63;;
34930;SDS011;21134;49.646;8.560;2024-03-06T09:04:20;1.23;;;1.13;;
34930;SDS011;21134;49.646;8.560;2024-03-06T09:06:47;1.90;;;1.37;;
34930;SDS011;21134;49.646;8.560;2024-03-06T09:09:14;2.77;;;1.67;;
34930;SDS011;21134;49.646;8.560;2024-03-06T09:11:40;5.53;;;1.53;;
34930;SDS011;21134;49.646;8.560;2024-03-06T09:14:08;1.67;;;1.57;;
34930;SDS011;21134;49.646;8.560;2024-03-06T09:16:35;1.40;;;1.30;;
34930;SDS011;21134;49.646;8.560;2024-03-06T09:19:01;1.37;;;1.33;;
34930;SDS011;21134;49.646;8.560;2024-03-06T09:21:28;1.90;;;1.57;;
34930;SDS011;21134;49.646;8.560;2024-03-06T09:23:54;1.90;;;1.63;;
34930;SDS011;21134;49.646;8.560;2024-03-06T09:26:21;3.83;;;1.93;;
34930;SDS011;21134;49.646;8.560;2024-03-06T09:28:47;1.33;;;1.17;;
34930;SDS011;21134;49.646;8.560;2024-03-06T09:31:16;1.40;;;1.03;;
34930;SDS011;21134;49.646;8.560;2024-03-06T09:33:42;1.27;;;1.17;;
34930;SDS011;21134;49.646;8.560;2024-03-06T09:36:11;3.20;;;1.63;;
34930;SDS011;21134;49.646;8.560;2024-03-06T09:38:39;0.87;;;0.73;;
34930;SDS011;21134;49.646;8.560;2024-03-06T09:41:06;7.77;;;2.27;;
34930;SDS011;21134;49.646;8.560;2024-03-06T09:43:33;1.53;;;1.07;;
34930;SDS011;21134;49.646;8.560;2024-03-06T09:46:00;1.57;;;1.47;;
34930;SDS011;21134;49.646;8.560;2024-03-06T09:48:28;7.13;;;2.83;;
34930;SDS011;21134;49.646;8.560;2024-03-06T09:50:57;0.97;;;0.97;;
34930;SDS011;21134;49.646;8.560;2024-03-06T09:53:27;4.20;;;1.97;;
34930;SDS011;21134;49.646;8.560;2024-03-06T09:55:53;1.83;;;1.63;;
34930;SDS011;21134;49.646;8.560;2024-03-06T09:58:22;3.73;;;1.77;;
34930;SDS011;21134;49.646;8.560;2024-03-06T10:00:49;1.50;;;1.30;;
34930;SDS011;21134;49.646;8.560;2024-03-06T10:03:16;3.40;;;2.07;;
34930;SDS011;21134;49.646;8.560;2024-03-06T10:05:44;5.37;;;2.03;;
34930;SDS011;21134;49.646;8.560;2024-03-06T10:08:11;4.70;;;1.33;;
34930;SDS011;21134;49.646;8.560;2024-03-06T10:10:41;2.20;;;1.63;;
34930;SDS011;21134;49.646;8.560;2024-03-06T10:13:08;2.23;;;1.93;;
34930;SDS011;21134;49.646;8.560;2024-03-06T10:15:34;4.00;;;2.47;;
34930;SDS011;21134;49.646;8.560;2024-03-06T10:18:11;2.67;;;2.47;;
34930;SDS011;21134;49.646;8.560;2024-03-06T10:20:44;7.83;;;3.63;;
34930;SDS011;21134;49.646;8.560;2024-03-06T10:23:11;11.23;;;3.87;;
34930;SDS011;21134;49.646;8.560;2024-03-06T10:25:38;8.57;;;4.40;;
34930;SDS011;21134;49.646;8.560;2024-03-06T10:28:05;7.53;;;3.20;;
34930;SDS011;21134;49.646;8.560;2024-03-06T10:30:33;7.43;;;2.73;;
34930;SDS011;21134;49.646;8.560;2024-03-06T10:33:00;3.43;;;1.67;;
34930;SDS011;21134;49.646;8.560;2024-03-06T10:35:28;13.80;;;3.53;;
34930;SDS011;21134;49.646;8.560;2024-03-06T10:37:56;13.57;;;2.97;;
34930;SDS011;21134;49.646;8.560;2024-03-06T10:40:24;6.20;;;3.57;;
34930;SDS011;21134;49.646;8.560;2024-03-06T10:42:51;2.33;;;2.13;;
34930;SDS011;21134;49.646;8.560;2024-03-06T10:45:18;7.03;;;3.43;;
34930;SDS011;21134;49.646;8.560;2024-03-06T10:47:50;9.43;;;3.83;;
34930;SDS011;21134;49.646;8.560;2024-03-06T10:50:17;2.80;;;1.77;;
34930;SDS011;21134;49.646;8.560;2024-03-06T10:52:46;7.17;;;4.67;;
34930;SDS011;21134;49.646;8.560;2024-03-06T10:55:16;3.03;;;2.60;;
34930;SDS011;21134;49.646;8.560;2024-03-06T10:57:43;4.70;;;2.57;;
34930;SDS011;21134;49.646;8.560;2024-03-06T11:00:13;5.07;;;2.43;;
34930;SDS011;21134;49.646;8.560;2024-03-06T11:02:44;2.27;;;1.43;;
34930;SDS011;21134;49.646;8.560;2024-03-06T11:05:14;9.37;;;3.20;;
34930;SDS011;21134;49.646;8.560;2024-03-06T11:07:41;3.47;;;2.80;;
34930;SDS011;21134;49.646;8.560;2024-03-06T11:10:09;4.00;;;2.57;;
34930;SDS011;21134;49.646;8.560;2024-03-06T11:12:42;4.23;;;2.40;;
34930;SDS011;21134;49.646;8.560;2024-03-06T11:15:10;8.30;;;4.47;;
34930;SDS011;21134;49.646;8.560;2024-03-06T11:17:39;5.57;;;3.13;;
34930;SDS011;21134;49.646;8.560;2024-03-06T11:20:16;7.00;;;3.10;;
34930;SDS011;21134;49.646;8.560;2024-03-06T11:23:02;5.87;;;2.57;;
34930;SDS011;21134;49.646;8.560;2024-03-06T11:28:29;4.50;;;2.90;;
34930;SDS011;21134;49.646;8.560;2024-03-06T11:30:56;11.40;;;3.50;;
34930;SDS011;21134;49.646;8.560;2024-03-06T11:33:28;5.20;;;3.37;;
34930;SDS011;21134;49.646;8.560;2024-03-06T11:38:46;7.30;;;3.27;;
34930;SDS011;21134;49.646;8.560;2024-03-06T11:41:24;10.27;;;4.77;;
34930;SDS011;21134;49.646;8.560;2024-03-06T11:43:53;5.67;;;3.17;;
34930;SDS011;21134;49.646;8.560;2024-03-06T11:46:20;9.37;;;4.40;;
34930;SDS011;21134;49.646;8.560;2024-03-06T11:48:53;10.73;;;4.80;;
34930;SDS011;21134;49.646;8.560;2024-03-06T11:51:21;5.33;;;3.20;;
34930;SDS011;21134;49.646;8.560;2024-03-06T11:53:51;7.67;;;3.07;;
34930;SDS011;21134;49.646;8.560;2024-03-06T11:56:18;14.30;;;4.83;;
34930;SDS011;21134;49.646;8.560;2024-03-06T11:58:45;5.43;;;3.10;;
34930;SDS011;21134;49.646;8.560;2024-03-06T12:01:13;6.67;;;3.93;;
34930;SDS011;21134;49.646;8.560;2024-03-06T12:03:41;6.67;;;3.27;;
34930;SDS011;21134;49.646;8.560;2024-03-06T12:06:08;15.57;;;3.83;;
34930;SDS011;21134;49.646;8.560;2024-03-06T12:08:35;11.43;;;3.97;;
34930;SDS011;21134;49.646;8.560;2024-03-06T12:11:02;5.43;;;3.17;;
34930;SDS011;21134;49.646;8.560;2024-03-06T12:13:29;12.67;;;3.87;;
34930;SDS011;21134;49.646;8.560;2024-03-06T12:15:56;6.07;;;2.80;;
34930;SDS011;21134;49.646;8.560;2024-03-06T12:18:24;8.87;;;3.77;;
34930;SDS011;21134;49.646;8.560;2024-03-06T12:20:50;4.00;;;2.83;;
34930;SDS011;21134;49.646;8.560;2024-03-06T12:23:20;6.47;;;3.53;;
34930;SDS011;21134;49.646;8.560;2024-03-06T12:25:48;4.17;;;2.43;;
34930;SDS011;21134;49.646;8.560;2024-03-06T12:28:15;6.60;;;2.30;;
34930;SDS011;21134;49.646;8.560;2024-03-06T12:30:43;8.27;;;3.80;;
34930;SDS011;21134;49.646;8.560;2024-03-06T12:33:09;8.97;;;3.50;;
34930;SDS011;21134;49.646;8.560;2024-03-06T12:35:41;4.27;;;2.77;;
34930;SDS011;21134;49.646;8.560;2024-03-06T12:38:13;8.07;;;2.93;;
34930;SDS011;21134;49.646;8.560;2024-03-06T12:40:40;5.37;;;3.37;;
34930;SDS011;21134;49.646;8.560;2024-03-06T12:43:09;12.60;;;3.70;;
34930;SDS011;21134;49.646;8.560;2024-03-06T12:45:36;9.60;;;3.07;;
34930;SDS011;21134;49.646;8.560;2024-03-06T12:48:02;7.77;;;2.73;;
34930;SDS011;21134;49.646;8.560;2024-03-06T12:50:29;4.43;;;3.30;;
34930;SDS011;21134;49.646;8.560;2024-03-06T12:52:57;7.83;;;3.70;;
34930;SDS011;21134;49.646;8.560;2024-03-06T12:55:24;9.23;;;3.93;;
34930;SDS011;21134;49.646;8.560;2024-03-06T12:57:51;9.17;;;3.60;;
34930;SDS011;21134;49.646;8.560;2024-03-06T13:00:18;6.10;;;2.00;;
34930;SDS011;21134;49.646;8.560;2024-03-06T13:02:45;6.67;;;2.53;;
34930;SDS011;21134;49.646;8.560;2024-03-06T13:05:12;6.70;;;3.07;;
34930;SDS011;21134;49.646;8.560;2024-03-06T13:07:39;8.37;;;3.33;;
34930;SDS011;21134;49.646;8.560;2024-03-06T13:10:09;5.37;;;3.53;;
34930;SDS011;21134;49.646;8.560;2024-03-06T13:12:36;5.47;;;2.13;;
34930;SDS011;21134;49.646;8.560;2024-03-06T13:15:03;12.13;;;3.40;;
34930;SDS011;21134;49.646;8.560;2024-03-06T13:17:32;8.53;;;4.10;;
34930;SDS011;21134;49.646;8.560;2024-03-06T13:19:58;9.00;;;3.13;;
34930;SDS011;21134;49.646;8.560;2024-03-06T13:22:25;6.13;;;2.43;;
34930;SDS011;21134;49.646;8.560;2024-03-06T13:24:51;6.67;;;2.83;;
34930;SDS011;21134;49.646;8.560;2024-03-06T13:27:19;5.30;;;3.10;;
34930;SDS011;21134;49.646;8.560;2024-03-06T13:29:46;19.20;;;3.03;;
34930;SDS011;21134;49.646;8.560;2024-03-06T13:32:12;8.07;;;3.13;;
34930;SDS011;21134;49.646;8.560;2024-03-06T13:34:39;1.97;;;1.83;;
34930;SDS011;21134;49.646;8.560;2024-03-06T13:37:05;9.23;;;3.37;;
34930;SDS011;21134;49.646;8.560;2024-03-06T13:39:35;3.67;;;2.90;;
34930;SDS011;21134;49.646;8.560;2024-03-06T13:42:01;11.33;;;2.67;;
34930;SDS011;21134;49.646;8.560;2024-03-06T13:44:29;9.80;;;5.03;;
34930;SDS011;21134;49.646;8.560;2024-03-06T13:46:56;6.00;;;2.30;;
34930;SDS011;21134;49.646;8.560;2024-03-06T13:49:33;5.33;;;2.63;;
34930;SDS011;21134;49.646;8.560;2024-03-06T13:52:01;8.33;;;3.67;;
34930;SDS011;21134;49.646;8.560;2024-03-06T13:54:27;4.63;;;2.73;;
34930;SDS011;21134;49.646;8.560;2024-03-06T13:56:54;3.83;;;2.53;;
34930;SDS011;21134;49.646;8.560;2024-03-06T13:59:26;9.67;;;3.77;;
34930;SDS011;21134;49.646;8.560;2024-03-06T14:01:54;10.27;;;3.40;;
34930;SDS011;21134;49.646;8.560;2024-03-06T14:04:20;4.93;;;3.20;;
34930;SDS011;21134;49.646;8.560;2024-03-06T14:06:47;9.20;;;3.30;;
34930;SDS011;21134;49.646;8.560;2024-03-06T14:09:14;7.70;;;2.93;;
34930;SDS011;21134;49.646;8.560;2024-03-06T14:11:41;6.57;;;3.73;;
34930;SDS011;21134;49.646;8.560;2024-03-06T14:14:07;9.40;;;3.30;;
34930;SDS011;21134;49.646;8.560;2024-03-06T14:16:34;3.57;;;2.00;;
34930;SDS011;21134;49.646;8.560;2024-03-06T14:19:02;8.57;;;2.63;;
34930;SDS011;21134;49.646;8.560;2024-03-06T14:21:29;5.90;;;3.00;;
34930;SDS011;21134;49.646;8.560;2024-03-06T14:23:57;7.60;;;3.67;;
34930;SDS011;21134;49.646;8.560;2024-03-06T14:26:24;11.53;;;3.27;;
34930;SDS011;21134;49.646;8.560;2024-03-06T14:28:52;4.73;;;2.17;;
34930;SDS011;21134;49.646;8.560;2024-03-06T14:31:19;3.03;;;2.27;;
34930;SDS011;21134;49.646;8.560;2024-03-06T14:33:45;6.50;;;3.87;;
34930;SDS011;21134;49.646;8.560;2024-03-06T14:36:13;7.47;;;2.80;;
34930;SDS011;21134;49.646;8.560;2024-03-06T14:38:40;6.10;;;3.47;;
34930;SDS011;21134;49.646;8.560;2024-03-06T14:41:06;8.27;;;3.17;;
34930;SDS011;21134;49.646;8.560;2024-03-06T14:43:34;6.13;;;2.63;;
34930;SDS011;21134;49.646;8.560;2024-03-06T14:46:03;5.33;;;3.23;;
34930;SDS011;21134;49.646;8.560;2024-03-06T14:48:30;7.43;;;3.20;;
34930;SDS011;21134;49.646;8.560;2024-03-06T14:50:57;2.83;;;1.73;;
34930;SDS011;21134;49.646;8.560;2024-03-06T14:53:25;4.67;;;3.00;;
34930;SDS011;21134;49.646;8.560;2024-03-06T14:55:51;7.93;;;3.30;;